Timber Mountain, Nevada Weather observations

Data are for 10 minute period ending at time listed.
 Day   Time   Solar   Ave.   Ave.  Ave.  Vector  Max.   Baro.   Total    
  of    of     Rad.   Air    Rel.  Wind   Wind   Wind  Press.  Precip.   
Year   Day            Temp.  Hum.  Speed  Dir.   Gust                    
2014   (PST)  Kw/m2    F      %     mph   deg.    mph    mb.     in.     
-------------------------------------------------------------------------
 243   13:00   0.96   84.3    10    7.3   280    16.3   811.9    0.00 
 243   14:00   0.89   84.9     9    8.0   288    18.3   811.5    0.00 
 243   15:00   0.75   85.6     9    8.1   287    16.1   810.9    0.00 
 243   16:00   0.57   85.4     9    7.9   255    16.7   810.7    0.00 
 243   17:00   0.35   84.7    10    7.1   234    15.5   810.4    0.00 
 243   18:00   0.14   81.4    11    8.0   227    15.9   810.4    0.00 
 243   19:00   0.00   76.9    12    7.1   218    12.3   810.4    0.00 
 243   20:00   0.00   75.3    13    7.7   227    13.1   810.6    0.00 
 243   21:00   0.00   71.9    15    3.0   246    10.4   810.7    0.00 
 243   22:00   0.00   68.9    18    2.4   111     6.6   810.7    0.00 
 243   23:00   0.00   68.8    19    2.3   123     5.8   810.8    0.00 
 244    0:00   0.00   67.0    20    2.6   122     6.3   810.9    0.00 
 244    1:00   0.00   63.7    22    1.6    97     4.5   811.1    0.00 
 244    2:00   0.00   62.8    23    2.3   104     5.4   811.1    0.00 
 244    3:00   0.00   61.2    25    3.6   106     6.2   811.1    0.00 
 244    4:00   0.00   61.2    24    3.9   107     5.8   811.2    0.00 
 244    5:00   0.00   60.6    25    4.4   112     7.2   811.5    0.00 
 244    6:00   0.01   60.2    24    5.7   110     7.7   811.8    0.00 
 244    7:00   0.21   72.4    15    2.2   115     7.1   812.0    0.00 
 244    8:00   0.44   80.2    10    4.0   248     8.6   812.1    0.00 
 244    9:00   0.64   80.0    12    6.6   248    11.6   812.6    0.00 
 244   10:00   0.80   81.1    12    7.4   242    14.1   812.9    0.00 
 244   11:00   0.91   83.2    12    6.4   230    14.2   813.0    0.00 
 244   12:00   0.96   84.4    11    6.6   208    28.1   812.8    0.00 

Return to Timber Mountain graphs page.


Western Regional Climate Center,wrcc@dri.edu